sensor_id;sensor_type;location;lat;lon;timestamp;pressure;altitude;pressure_sealevel;temperature;humidity
13015;BME280;6573;57.696;11.950;2023-08-06T00:00:29;101045.50;;;20.31;100.00
13015;BME280;6573;57.696;11.950;2023-08-06T00:02:57;101060.09;;;20.21;100.00
13015;BME280;6573;57.696;11.950;2023-08-06T00:05:27;101056.84;;;20.13;100.00
13015;BME280;6573;57.696;11.950;2023-08-06T00:07:57;101046.78;;;20.20;100.00
13015;BME280;6573;57.696;11.950;2023-08-06T00:10:25;101054.31;;;20.33;100.00
13015;BME280;6573;57.696;11.950;2023-08-06T00:12:55;101043.38;;;20.39;100.00
13015;BME280;6573;57.696;11.950;2023-08-06T00:15:23;101037.09;;;20.40;100.00
13015;BME280;6573;57.696;11.950;2023-08-06T00:17:52;101039.44;;;20.03;100.00
13015;BME280;6573;57.696;11.950;2023-08-06T00:20:20;101024.34;;;19.79;100.00
13015;BME280;6573;57.696;11.950;2023-08-06T00:22:48;101034.91;;;19.82;100.00
13015;BME280;6573;57.696;11.950;2023-08-06T00:25:17;101035.03;;;19.79;100.00
13015;BME280;6573;57.696;11.950;2023-08-06T00:27:46;101041.88;;;19.86;100.00
13015;BME280;6573;57.696;11.950;2023-08-06T00:30:16;101042.16;;;19.78;100.00
13015;BME280;6573;57.696;11.950;2023-08-06T00:32:44;101038.00;;;19.70;100.00
13015;BME280;6573;57.696;11.950;2023-08-06T00:35:12;101024.72;;;19.68;100.00
13015;BME280;6573;57.696;11.950;2023-08-06T00:37:41;101024.81;;;19.67;100.00
13015;BME280;6573;57.696;11.950;2023-08-06T00:40:09;101028.50;;;19.63;100.00
13015;BME280;6573;57.696;11.950;2023-08-06T00:42:37;101035.50;;;19.42;100.00
13015;BME280;6573;57.696;11.950;2023-08-06T00:45:07;101034.72;;;19.38;100.00
13015;BME280;6573;57.696;11.950;2023-08-06T00:47:36;101038.59;;;19.28;100.00
13015;BME280;6573;57.696;11.950;2023-08-06T00:50:07;101033.38;;;19.25;100.00
13015;BME280;6573;57.696;11.950;2023-08-06T00:52:36;101025.91;;;19.36;100.00
13015;BME280;6573;57.696;11.950;2023-08-06T00:55:05;101025.00;;;19.36;100.00
13015;BME280;6573;57.696;11.950;2023-08-06T00:57:34;101020.75;;;19.30;100.00
13015;BME280;6573;57.696;11.950;2023-08-06T01:00:03;101013.69;;;19.29;100.00
13015;BME280;6573;57.696;11.950;2023-08-06T01:02:32;101017.25;;;19.28;100.00
13015;BME280;6573;57.696;11.950;2023-08-06T01:05:02;101020.28;;;19.18;100.00
13015;BME280;6573;57.696;11.950;2023-08-06T01:07:40;101008.66;;;19.20;100.00
13015;BME280;6573;57.696;11.950;2023-08-06T01:10:23;101020.53;;;19.12;100.00
13015;BME280;6573;57.696;11.950;2023-08-06T01:13:08;101025.59;;;19.19;100.00
13015;BME280;6573;57.696;11.950;2023-08-06T01:15:45;101010.59;;;19.15;100.00
13015;BME280;6573;57.696;11.950;2023-08-06T01:18:14;101006.69;;;19.25;100.00
13015;BME280;6573;57.696;11.950;2023-08-06T01:20:44;101006.47;;;19.31;100.00
13015;BME280;6573;57.696;11.950;2023-08-06T01:23:12;101010.31;;;19.24;100.00
13015;BME280;6573;57.696;11.950;2023-08-06T01:25:46;101001.88;;;19.10;100.00
13015;BME280;6573;57.696;11.950;2023-08-06T01:28:21;100998.63;;;19.02;100.00
13015;BME280;6573;57.696;11.950;2023-08-06T01:30:52;100990.13;;;18.91;100.00
13015;BME280;6573;57.696;11.950;2023-08-06T01:33:24;100997.31;;;18.89;100.00
13015;BME280;6573;57.696;11.950;2023-08-06T01:35:54;100991.06;;;18.64;100.00
13015;BME280;6573;57.696;11.950;2023-08-06T01:38:24;101000.03;;;18.88;100.00
13015;BME280;6573;57.696;11.950;2023-08-06T01:40:54;101002.97;;;18.80;100.00
13015;BME280;6573;57.696;11.950;2023-08-06T01:43:23;100999.44;;;18.78;100.00
13015;BME280;6573;57.696;11.950;2023-08-06T01:45:51;101004.94;;;19.00;100.00
13015;BME280;6573;57.696;11.950;2023-08-06T01:48:19;101008.09;;;19.11;100.00
13015;BME280;6573;57.696;11.950;2023-08-06T01:50:47;101014.84;;;18.96;100.00
13015;BME280;6573;57.696;11.950;2023-08-06T01:53:17;101009.19;;;19.05;100.00
13015;BME280;6573;57.696;11.950;2023-08-06T01:55:47;101011.03;;;19.03;100.00
13015;BME280;6573;57.696;11.950;2023-08-06T01:58:16;101007.34;;;19.07;100.00
13015;BME280;6573;57.696;11.950;2023-08-06T02:00:44;101025.16;;;19.07;100.00
13015;BME280;6573;57.696;11.950;2023-08-06T02:03:12;101012.41;;;18.90;100.00
13015;BME280;6573;57.696;11.950;2023-08-06T02:05:41;101015.16;;;18.87;100.00
13015;BME280;6573;57.696;11.950;2023-08-06T02:08:09;101007.78;;;18.95;100.00
13015;BME280;6573;57.696;11.950;2023-08-06T02:10:39;101011.16;;;19.00;100.00
13015;BME280;6573;57.696;11.950;2023-08-06T02:13:08;101016.59;;;18.97;100.00
13015;BME280;6573;57.696;11.950;2023-08-06T02:15:41;101017.34;;;19.01;100.00
13015;BME280;6573;57.696;11.950;2023-08-06T02:18:10;101019.75;;;19.08;100.00
13015;BME280;6573;57.696;11.950;2023-08-06T02:20:38;101019.84;;;19.05;100.00
13015;BME280;6573;57.696;11.950;2023-08-06T02:23:06;101037.50;;;19.09;100.00
13015;BME280;6573;57.696;11.950;2023-08-06T02:25:34;101033.03;;;19.10;100.00
13015;BME280;6573;57.696;11.950;2023-08-06T02:28:04;101036.19;;;19.21;100.00
13015;BME280;6573;57.696;11.950;2023-08-06T02:30:32;101045.59;;;19.32;100.00
13015;BME280;6573;57.696;11.950;2023-08-06T02:33:00;101049.78;;;19.13;100.00
13015;BME280;6573;57.696;11.950;2023-08-06T02:35:30;101053.44;;;18.85;100.00
13015;BME280;6573;57.696;11.950;2023-08-06T02:37:58;101048.22;;;18.82;100.00
13015;BME280;6573;57.696;11.950;2023-08-06T02:40:27;101052.97;;;18.72;100.00
13015;BME280;6573;57.696;11.950;2023-08-06T02:42:55;101054.91;;;18.67;100.00
13015;BME280;6573;57.696;11.950;2023-08-06T02:45:27;101054.00;;;18.68;100.00
13015;BME280;6573;57.696;11.950;2023-08-06T02:47:55;101055.47;;;18.50;100.00
13015;BME280;6573;57.696;11.950;2023-08-06T02:50:23;101053.56;;;18.54;100.00
13015;BME280;6573;57.696;11.950;2023-08-06T02:52:51;101043.94;;;18.50;100.00
13015;BME280;6573;57.696;11.950;2023-08-06T02:55:20;101042.16;;;18.50;100.00
13015;BME280;6573;57.696;11.950;2023-08-06T02:57:48;101039.56;;;18.46;100.00
13015;BME280;6573;57.696;11.950;2023-08-06T03:00:16;101038.00;;;18.39;100.00
13015;BME280;6573;57.696;11.950;2023-08-06T03:02:46;101046.13;;;18.36;100.00
13015;BME280;6573;57.696;11.950;2023-08-06T03:05:14;101052.16;;;18.41;100.00
13015;BME280;6573;57.696;11.950;2023-08-06T03:07:43;101049.13;;;18.24;100.00
13015;BME280;6573;57.696;11.950;2023-08-06T03:10:11;101044.09;;;18.15;100.00
13015;BME280;6573;57.696;11.950;2023-08-06T03:12:40;101048.03;;;18.01;100.00
13015;BME280;6573;57.696;11.950;2023-08-06T03:15:09;101045.88;;;18.16;100.00
13015;BME280;6573;57.696;11.950;2023-08-06T03:17:38;101042.19;;;18.20;100.00
13015;BME280;6573;57.696;11.950;2023-08-06T03:20:09;101050.00;;;18.26;100.00
13015;BME280;6573;57.696;11.950;2023-08-06T03:22:37;101040.88;;;18.33;100.00
13015;BME280;6573;57.696;11.950;2023-08-06T03:25:06;101047.63;;;18.44;100.00
13015;BME280;6573;57.696;11.950;2023-08-06T03:27:34;101050.97;;;18.51;100.00
13015;BME280;6573;57.696;11.950;2023-08-06T03:30:03;101051.84;;;18.53;100.00
13015;BME280;6573;57.696;11.950;2023-08-06T03:32:31;101061.84;;;18.43;100.00
13015;BME280;6573;57.696;11.950;2023-08-06T03:35:00;101054.28;;;18.30;100.00
13015;BME280;6573;57.696;11.950;2023-08-06T03:37:30;101048.97;;;18.30;100.00
13015;BME280;6573;57.696;11.950;2023-08-06T03:39:58;101040.66;;;18.40;100.00
13015;BME280;6573;57.696;11.950;2023-08-06T03:42:27;101056.84;;;18.62;100.00
13015;BME280;6573;57.696;11.950;2023-08-06T03:44:55;101053.47;;;18.57;100.00
13015;BME280;6573;57.696;11.950;2023-08-06T03:47:23;101051.78;;;18.25;100.00
13015;BME280;6573;57.696;11.950;2023-08-06T03:49:51;101045.47;;;18.28;100.00
13015;BME280;6573;57.696;11.950;2023-08-06T03:52:19;101050.22;;;18.46;100.00
13015;BME280;6573;57.696;11.950;2023-08-06T03:54:49;101047.03;;;18.35;100.00
13015;BME280;6573;57.696;11.950;2023-08-06T03:57:17;101047.75;;;18.40;100.00
13015;BME280;6573;57.696;11.950;2023-08-06T03:59:45;101045.28;;;18.63;100.00
13015;BME280;6573;57.696;11.950;2023-08-06T04:02:20;101047.97;;;18.63;100.00
13015;BME280;6573;57.696;11.950;2023-08-06T04:04:49;101046.13;;;18.36;100.00
13015;BME280;6573;57.696;11.950;2023-08-06T04:07:22;101042.00;;;18.26;100.00
13015;BME280;6573;57.696;11.950;2023-08-06T04:09:57;101037.56;;;18.54;100.00
13015;BME280;6573;57.696;11.950;2023-08-06T04:12:26;101036.38;;;18.35;100.00
13015;BME280;6573;57.696;11.950;2023-08-06T04:14:55;101024.34;;;18.22;100.00
13015;BME280;6573;57.696;11.950;2023-08-06T04:17:24;101040.16;;;18.28;100.00
13015;BME280;6573;57.696;11.950;2023-08-06T04:19:54;101037.94;;;18.42;100.00
13015;BME280;6573;57.696;11.950;2023-08-06T04:22:28;101033.16;;;18.24;100.00
13015;BME280;6573;57.696;11.950;2023-08-06T04:24:57;101021.97;;;18.13;100.00
13015;BME280;6573;57.696;11.950;2023-08-06T04:27:26;101025.81;;;18.32;100.00
13015;BME280;6573;57.696;11.950;2023-08-06T04:29:54;101024.09;;;18.31;100.00
13015;BME280;6573;57.696;11.950;2023-08-06T04:32:23;101024.66;;;18.40;100.00
13015;BME280;6573;57.696;11.950;2023-08-06T04:34:55;101020.53;;;18.59;100.00
13015;BME280;6573;57.696;11.950;2023-08-06T04:37:24;101020.91;;;18.75;100.00
13015;BME280;6573;57.696;11.950;2023-08-06T04:39:52;101029.63;;;18.80;100.00
13015;BME280;6573;57.696;11.950;2023-08-06T04:42:22;101029.63;;;18.80;100.00
13015;BME280;6573;57.696;11.950;2023-08-06T04:44:50;101013.66;;;18.52;100.00
13015;BME280;6573;57.696;11.950;2023-08-06T04:47:18;101019.94;;;18.50;100.00
13015;BME280;6573;57.696;11.950;2023-08-06T04:49:47;101013.88;;;18.45;100.00
13015;BME280;6573;57.696;11.950;2023-08-06T04:52:15;101019.72;;;18.56;100.00
13015;BME280;6573;57.696;11.950;2023-08-06T04:54:46;101020.59;;;18.84;100.00
13015;BME280;6573;57.696;11.950;2023-08-06T04:57:14;101022.34;;;18.85;100.00
13015;BME280;6573;57.696;11.950;2023-08-06T04:59:44;101015.75;;;18.69;100.00
13015;BME280;6573;57.696;11.950;2023-08-06T05:02:12;101015.75;;;18.69;100.00
13015;BME280;6573;57.696;11.950;2023-08-06T05:04:40;101019.16;;;18.74;100.00
13015;BME280;6573;57.696;11.950;2023-08-06T05:07:10;101012.78;;;18.78;100.00
13015;BME280;6573;57.696;11.950;2023-08-06T05:09:38;101011.97;;;18.76;100.00
13015;BME280;6573;57.696;11.950;2023-08-06T05:12:07;101019.69;;;18.85;100.00
13015;BME280;6573;57.696;11.950;2023-08-06T05:14:36;101011.88;;;18.79;100.00
13015;BME280;6573;57.696;11.950;2023-08-06T05:17:05;101002.50;;;18.67;100.00
13015;BME280;6573;57.696;11.950;2023-08-06T05:19:34;101001.94;;;18.58;100.00
13015;BME280;6573;57.696;11.950;2023-08-06T05:22:02;101000.41;;;18.75;100.00
13015;BME280;6573;57.696;11.950;2023-08-06T05:24:30;100999.25;;;18.84;100.00
13015;BME280;6573;57.696;11.950;2023-08-06T05:26:58;100999.34;;;19.07;100.00
13015;BME280;6573;57.696;11.950;2023-08-06T05:29:27;100987.66;;;19.11;100.00
13015;BME280;6573;57.696;11.950;2023-08-06T05:31:55;100989.22;;;18.92;100.00
13015;BME280;6573;57.696;11.950;2023-08-06T05:34:25;100993.19;;;19.05;100.00
13015;BME280;6573;57.696;11.950;2023-08-06T05:36:53;100991.03;;;19.16;100.00
13015;BME280;6573;57.696;11.950;2023-08-06T05:39:24;100983.09;;;19.15;100.00
13015;BME280;6573;57.696;11.950;2023-08-06T05:41:52;100981.78;;;19.26;100.00
13015;BME280;6573;57.696;11.950;2023-08-06T05:44:23;100986.75;;;19.35;100.00
13015;BME280;6573;57.696;11.950;2023-08-06T05:46:51;100983.19;;;19.12;100.00
13015;BME280;6573;57.696;11.950;2023-08-06T05:49:20;100986.84;;;19.09;100.00
13015;BME280;6573;57.696;11.950;2023-08-06T05:51:50;100983.28;;;19.09;100.00
13015;BME280;6573;57.696;11.950;2023-08-06T05:54:20;100988.41;;;19.15;100.00
13015;BME280;6573;57.696;11.950;2023-08-06T05:56:48;100978.56;;;19.17;100.00
13015;BME280;6573;57.696;11.950;2023-08-06T05:59:16;100982.22;;;19.14;100.00
13015;BME280;6573;57.696;11.950;2023-08-06T06:01:45;100955.53;;;19.14;100.00
13015;BME280;6573;57.696;11.950;2023-08-06T06:04:13;100977.88;;;19.36;100.00
13015;BME280;6573;57.696;11.950;2023-08-06T06:06:41;100977.31;;;19.52;100.00
13015;BME280;6573;57.696;11.950;2023-08-06T06:09:11;100986.03;;;19.57;100.00
13015;BME280;6573;57.696;11.950;2023-08-06T06:11:39;100976.75;;;19.67;100.00
13015;BME280;6573;57.696;11.950;2023-08-06T06:14:08;100971.53;;;19.64;100.00
13015;BME280;6573;57.696;11.950;2023-08-06T06:16:36;100970.84;;;19.82;100.00
13015;BME280;6573;57.696;11.950;2023-08-06T06:19:04;100964.91;;;19.97;100.00
13015;BME280;6573;57.696;11.950;2023-08-06T06:21:33;100960.72;;;19.90;100.00
13015;BME280;6573;57.696;11.950;2023-08-06T06:24:01;100956.66;;;19.80;100.00
13015;BME280;6573;57.696;11.950;2023-08-06T06:26:32;100962.34;;;19.71;100.00
13015;BME280;6573;57.696;11.950;2023-08-06T06:29:00;100949.00;;;19.94;100.00
13015;BME280;6573;57.696;11.950;2023-08-06T06:31:29;100973.47;;;20.05;100.00
13015;BME280;6573;57.696;11.950;2023-08-06T06:33:57;100953.84;;;20.06;100.00
13015;BME280;6573;57.696;11.950;2023-08-06T06:36:26;100967.69;;;19.94;100.00
13015;BME280;6573;57.696;11.950;2023-08-06T06:38:54;100956.06;;;19.95;100.00
13015;BME280;6573;57.696;11.950;2023-08-06T06:41:23;100950.38;;;20.04;100.00
13015;BME280;6573;57.696;11.950;2023-08-06T06:43:54;100955.91;;;20.21;100.00
13015;BME280;6573;57.696;11.950;2023-08-06T06:46:25;100963.25;;;20.16;100.00
13015;BME280;6573;57.696;11.950;2023-08-06T06:48:54;100963.59;;;20.07;100.00
13015;BME280;6573;57.696;11.950;2023-08-06T06:51:22;100964.16;;;20.15;100.00
13015;BME280;6573;57.696;11.950;2023-08-06T06:53:50;100968.13;;;20.05;100.00
13015;BME280;6573;57.696;11.950;2023-08-06T06:56:19;100957.25;;;20.10;100.00
13015;BME280;6573;57.696;11.950;2023-08-06T06:58:47;100966.03;;;20.36;100.00
13015;BME280;6573;57.696;11.950;2023-08-06T07:01:19;100963.22;;;20.61;100.00
13015;BME280;6573;57.696;11.950;2023-08-06T07:03:47;100947.66;;;20.71;100.00
13015;BME280;6573;57.696;11.950;2023-08-06T07:06:16;100953.50;;;20.58;100.00
13015;BME280;6573;57.696;11.950;2023-08-06T07:08:45;100960.50;;;20.41;100.00
13015;BME280;6573;57.696;11.950;2023-08-06T07:11:13;100955.13;;;20.62;100.00
13015;BME280;6573;57.696;11.950;2023-08-06T07:13:41;100952.88;;;20.74;100.00
13015;BME280;6573;57.696;11.950;2023-08-06T07:16:09;100942.53;;;20.86;100.00
13015;BME280;6573;57.696;11.950;2023-08-06T07:18:39;100939.53;;;20.94;100.00
13015;BME280;6573;57.696;11.950;2023-08-06T07:21:07;100936.31;;;20.86;100.00
13015;BME280;6573;57.696;11.950;2023-08-06T07:23:35;100929.19;;;20.85;100.00
13015;BME280;6573;57.696;11.950;2023-08-06T07:26:03;100931.72;;;20.67;100.00
13015;BME280;6573;57.696;11.950;2023-08-06T07:28:32;100921.13;;;20.86;100.00
13015;BME280;6573;57.696;11.950;2023-08-06T07:31:02;100915.03;;;21.03;100.00
13015;BME280;6573;57.696;11.950;2023-08-06T07:33:34;100922.75;;;21.31;100.00
13015;BME280;6573;57.696;11.950;2023-08-06T07:36:09;100919.88;;;21.15;100.00
13015;BME280;6573;57.696;11.950;2023-08-06T07:38:37;100924.63;;;21.47;100.00
13015;BME280;6573;57.696;11.950;2023-08-06T07:41:05;100918.94;;;21.16;100.00
13015;BME280;6573;57.696;11.950;2023-08-06T07:43:33;100914.63;;;21.32;100.00
13015;BME280;6573;57.696;11.950;2023-08-06T07:46:02;100897.38;;;21.19;100.00
13015;BME280;6573;57.696;11.950;2023-08-06T07:48:30;100913.03;;;21.28;100.00
13015;BME280;6573;57.696;11.950;2023-08-06T07:50:59;100914.09;;;21.24;100.00
13015;BME280;6573;57.696;11.950;2023-08-06T07:53:28;100906.25;;;21.40;100.00
13015;BME280;6573;57.696;11.950;2023-08-06T07:55:57;100863.03;;;21.10;100.00
13015;BME280;6573;57.696;11.950;2023-08-06T07:58:27;100913.13;;;21.45;100.00
13015;BME280;6573;57.696;11.950;2023-08-06T08:00:56;100909.88;;;21.57;100.00
13015;BME280;6573;57.696;11.950;2023-08-06T08:03:25;100879.25;;;21.44;100.00
13015;BME280;6573;57.696;11.950;2023-08-06T08:05:55;100904.41;;;21.60;100.00
13015;BME280;6573;57.696;11.950;2023-08-06T08:08:28;100899.34;;;21.73;100.00
13015;BME280;6573;57.696;11.950;2023-08-06T08:10:57;100921.41;;;22.15;100.00
13015;BME280;6573;57.696;11.950;2023-08-06T08:13:26;100927.09;;;22.45;100.00
13015;BME280;6573;57.696;11.950;2023-08-06T08:15:58;100923.59;;;22.43;100.00
13015;BME280;6573;57.696;11.950;2023-08-06T08:18:27;100918.97;;;22.28;100.00
13015;BME280;6573;57.696;11.950;2023-08-06T08:20:56;100915.44;;;22.63;100.00
13015;BME280;6573;57.696;11.950;2023-08-06T08:23:25;100911.81;;;22.64;100.00
13015;BME280;6573;57.696;11.950;2023-08-06T08:25:54;100914.50;;;22.81;100.00
13015;BME280;6573;57.696;11.950;2023-08-06T08:28:23;100899.97;;;22.85;100.00
13015;BME280;6573;57.696;11.950;2023-08-06T08:30:51;100914.72;;;22.60;100.00
13015;BME280;6573;57.696;11.950;2023-08-06T08:33:20;100913.63;;;22.28;100.00
13015;BME280;6573;57.696;11.950;2023-08-06T08:35:48;100917.63;;;22.55;100.00
13015;BME280;6573;57.696;11.950;2023-08-06T08:38:16;100904.06;;;22.75;100.00
13015;BME280;6573;57.696;11.950;2023-08-06T08:40:46;100901.88;;;22.83;100.00
13015;BME280;6573;57.696;11.950;2023-08-06T08:43:18;100906.13;;;22.70;100.00
13015;BME280;6573;57.696;11.950;2023-08-06T08:45:50;100911.09;;;22.95;100.00
13015;BME280;6573;57.696;11.950;2023-08-06T08:48:19;100896.75;;;22.96;100.00
13015;BME280;6573;57.696;11.950;2023-08-06T08:50:49;100902.22;;;22.77;100.00
13015;BME280;6573;57.696;11.950;2023-08-06T08:53:18;100899.53;;;22.77;100.00
13015;BME280;6573;57.696;11.950;2023-08-06T08:55:47;100897.44;;;22.65;100.00
13015;BME280;6573;57.696;11.950;2023-08-06T08:58:17;100889.72;;;22.76;100.00
13015;BME280;6573;57.696;11.950;2023-08-06T09:00:47;100886.28;;;22.74;100.00
13015;BME280;6573;57.696;11.950;2023-08-06T09:03:16;100881.69;;;22.76;100.00
13015;BME280;6573;57.696;11.950;2023-08-06T09:05:48;100875.06;;;22.83;100.00
13015;BME280;6573;57.696;11.950;2023-08-06T09:08:35;100874.56;;;22.75;100.00
13015;BME280;6573;57.696;11.950;2023-08-06T09:11:05;100882.94;;;22.86;100.00
13015;BME280;6573;57.696;11.950;2023-08-06T09:13:38;100871.88;;;23.09;100.00
13015;BME280;6573;57.696;11.950;2023-08-06T09:16:06;100872.72;;;23.10;100.00
13015;BME280;6573;57.696;11.950;2023-08-06T09:18:39;100874.00;;;22.51;100.00
13015;BME280;6573;57.696;11.950;2023-08-06T09:21:13;100871.84;;;22.41;100.00
13015;BME280;6573;57.696;11.950;2023-08-06T09:23:42;100858.28;;;22.27;100.00
13015;BME280;6573;57.696;11.950;2023-08-06T09:26:13;100851.44;;;22.38;100.00
13015;BME280;6573;57.696;11.950;2023-08-06T09:28:44;100845.19;;;22.38;100.00
13015;BME280;6573;57.696;11.950;2023-08-06T09:31:12;100854.09;;;22.74;100.00
13015;BME280;6573;57.696;11.950;2023-08-06T09:33:40;100842.34;;;22.92;100.00
13015;BME280;6573;57.696;11.950;2023-08-06T09:36:12;100858.81;;;22.86;100.00
13015;BME280;6573;57.696;11.950;2023-08-06T09:38:40;100858.47;;;22.92;100.00
13015;BME280;6573;57.696;11.950;2023-08-06T09:41:08;100863.13;;;23.39;100.00
13015;BME280;6573;57.696;11.950;2023-08-06T09:43:42;100860.22;;;22.93;100.00
13015;BME280;6573;57.696;11.950;2023-08-06T09:46:12;100868.88;;;22.98;100.00
13015;BME280;6573;57.696;11.950;2023-08-06T09:48:47;100864.31;;;22.83;100.00
13015;BME280;6573;57.696;11.950;2023-08-06T09:51:16;100861.94;;;22.94;100.00
13015;BME280;6573;57.696;11.950;2023-08-06T09:53:45;100847.09;;;23.04;100.00
13015;BME280;6573;57.696;11.950;2023-08-06T09:56:15;100855.78;;;23.25;100.00
13015;BME280;6573;57.696;11.950;2023-08-06T09:58:47;100859.53;;;23.05;100.00
13015;BME280;6573;57.696;11.950;2023-08-06T10:01:19;100858.06;;;23.33;100.00
13015;BME280;6573;57.696;11.950;2023-08-06T10:03:49;100853.41;;;23.03;100.00
13015;BME280;6573;57.696;11.950;2023-08-06T10:06:22;100848.34;;;23.30;100.00
13015;BME280;6573;57.696;11.950;2023-08-06T10:08:51;100843.59;;;23.19;100.00
13015;BME280;6573;57.696;11.950;2023-08-06T10:11:21;100838.66;;;23.28;100.00
13015;BME280;6573;57.696;11.950;2023-08-06T10:13:55;100825.47;;;23.23;100.00
13015;BME280;6573;57.696;11.950;2023-08-06T10:16:27;100834.09;;;23.12;100.00
13015;BME280;6573;57.696;11.950;2023-08-06T10:18:56;100822.13;;;23.19;100.00
13015;BME280;6573;57.696;11.950;2023-08-06T10:21:25;100826.97;;;23.29;100.00
13015;BME280;6573;57.696;11.950;2023-08-06T10:23:55;100807.28;;;23.12;100.00
13015;BME280;6573;57.696;11.950;2023-08-06T10:26:28;100826.22;;;23.42;100.00
13015;BME280;6573;57.696;11.950;2023-08-06T10:28:59;100823.13;;;23.50;100.00
13015;BME280;6573;57.696;11.950;2023-08-06T10:31:58;100816.34;;;23.43;100.00
13015;BME280;6573;57.696;11.950;2023-08-06T10:34:53;100817.06;;;23.62;100.00
13015;BME280;6573;57.696;11.950;2023-08-06T10:37:21;100814.97;;;23.36;100.00
13015;BME280;6573;57.696;11.950;2023-08-06T10:39:50;100809.06;;;23.45;100.00
13015;BME280;6573;57.696;11.950;2023-08-06T10:42:20;100814.66;;;23.42;100.00
13015;BME280;6573;57.696;11.950;2023-08-06T10:45:12;100818.78;;;23.63;100.00
13015;BME280;6573;57.696;11.950;2023-08-06T10:47:44;100810.91;;;23.60;100.00
13015;BME280;6573;57.696;11.950;2023-08-06T10:50:14;100810.81;;;23.46;100.00
13015;BME280;6573;57.696;11.950;2023-08-06T10:52:44;100812.91;;;23.41;100.00
13015;BME280;6573;57.696;11.950;2023-08-06T10:55:13;100819.31;;;23.38;100.00
13015;BME280;6573;57.696;11.950;2023-08-06T10:57:42;100800.09;;;23.46;100.00
13015;BME280;6573;57.696;11.950;2023-08-06T11:00:11;100817.16;;;23.28;100.00
13015;BME280;6573;57.696;11.950;2023-08-06T11:02:44;100811.81;;;23.28;100.00
13015;BME280;6573;57.696;11.950;2023-08-06T11:05:12;100816.03;;;23.49;100.00
13015;BME280;6573;57.696;11.950;2023-08-06T11:07:41;100809.06;;;23.45;100.00
13015;BME280;6573;57.696;11.950;2023-08-06T11:10:11;100817.41;;;23.56;100.00
13015;BME280;6573;57.696;11.950;2023-08-06T11:12:39;100809.44;;;23.39;100.00
13015;BME280;6573;57.696;11.950;2023-08-06T11:15:08;100805.63;;;23.43;100.00
13015;BME280;6573;57.696;11.950;2023-08-06T11:17:39;100814.13;;;23.51;100.00
13015;BME280;6573;57.696;11.950;2023-08-06T11:20:10;100817.75;;;23.50;100.00
13015;BME280;6573;57.696;11.950;2023-08-06T11:22:40;100811.47;;;23.34;100.00
13015;BME280;6573;57.696;11.950;2023-08-06T11:25:08;100806.81;;;23.37;100.00
13015;BME280;6573;57.696;11.950;2023-08-06T11:27:39;100808.91;;;23.48;100.00
13015;BME280;6573;57.696;11.950;2023-08-06T11:30:14;100819.66;;;23.48;100.00
13015;BME280;6573;57.696;11.950;2023-08-06T11:32:45;100807.47;;;23.09;100.00
13015;BME280;6573;57.696;11.950;2023-08-06T11:35:16;100814.22;;;23.16;100.00
13015;BME280;6573;57.696;11.950;2023-08-06T11:37:45;100815.25;;;23.30;100.00
13015;BME280;6573;57.696;11.950;2023-08-06T11:40:15;100806.78;;;23.22;100.00
13015;BME280;6573;57.696;11.950;2023-08-06T11:42:43;100800.81;;;23.16;100.00
13015;BME280;6573;57.696;11.950;2023-08-06T11:45:11;100805.63;;;23.43;100.00
13015;BME280;6573;57.696;11.950;2023-08-06T11:47:40;100804.88;;;23.24;100.00
13015;BME280;6573;57.696;11.950;2023-08-06T11:50:08;100797.59;;;23.26;100.00
13015;BME280;6573;57.696;11.950;2023-08-06T11:52:39;100795.84;;;23.25;100.00
13015;BME280;6573;57.696;11.950;2023-08-06T11:55:09;100772.09;;;23.50;100.00
13015;BME280;6573;57.696;11.950;2023-08-06T11:57:39;100783.03;;;23.30;100.00
13015;BME280;6573;57.696;11.950;2023-08-06T12:00:09;100781.78;;;23.68;100.00
13015;BME280;6573;57.696;11.950;2023-08-06T12:02:40;100783.06;;;23.92;100.00
13015;BME280;6573;57.696;11.950;2023-08-06T12:05:13;100769.25;;;23.53;100.00
13015;BME280;6573;57.696;11.950;2023-08-06T12:07:44;100766.47;;;23.39;100.00
13015;BME280;6573;57.696;11.950;2023-08-06T12:10:13;100770.97;;;23.54;100.00
13015;BME280;6573;57.696;11.950;2023-08-06T12:12:41;100760.75;;;23.60;100.00
13015;BME280;6573;57.696;11.950;2023-08-06T12:15:10;100746.53;;;23.74;100.00
13015;BME280;6573;57.696;11.950;2023-08-06T12:17:38;100747.38;;;23.28;100.00
13015;BME280;6573;57.696;11.950;2023-08-06T12:20:08;100744.09;;;23.23;100.00
13015;BME280;6573;57.696;11.950;2023-08-06T12:22:37;100747.31;;;23.45;100.00
13015;BME280;6573;57.696;11.950;2023-08-06T12:25:09;100730.44;;;23.43;100.00
13015;BME280;6573;57.696;11.950;2023-08-06T12:27:40;100728.34;;;23.48;100.00
13015;BME280;6573;57.696;11.950;2023-08-06T12:30:09;100712.06;;;23.51;100.00
13015;BME280;6573;57.696;11.950;2023-08-06T12:32:38;100703.34;;;23.77;100.00
13015;BME280;6573;57.696;11.950;2023-08-06T12:35:07;100702.38;;;23.48;100.00
13015;BME280;6573;57.696;11.950;2023-08-06T12:37:36;100705.06;;;23.48;100.00
13015;BME280;6573;57.696;11.950;2023-08-06T12:40:07;100696.31;;;23.45;100.00
13015;BME280;6573;57.696;11.950;2023-08-06T12:42:56;100682.59;;;23.65;100.00
13015;BME280;6573;57.696;11.950;2023-08-06T12:45:25;100683.94;;;23.72;100.00
13015;BME280;6573;57.696;11.950;2023-08-06T12:47:54;100680.88;;;23.33;100.00
13015;BME280;6573;57.696;11.950;2023-08-06T12:50:22;100688.41;;;23.10;100.00
13015;BME280;6573;57.696;11.950;2023-08-06T12:52:50;100681.91;;;22.83;100.00